sensor_id;sensor_type;location;lat;lon;timestamp;pressure;altitude;pressure_sealevel;temperature;humidity
59654;BME280;66556;52.008;5.432;2023-04-04T00:01:31;103033.0;;;16.43;26.07
59654;BME280;66556;52.008;5.432;2023-04-04T00:03:07;103031.0;;;16.36;26.29
59654;BME280;66556;52.008;5.432;2023-04-04T00:06:20;103036.99999999999;;;16.34;26.4
59654;BME280;66556;52.008;5.432;2023-04-04T00:07:56;103033.99999999999;;;16.14;26.46
59654;BME280;66556;52.008;5.432;2023-04-04T00:09:32;103033.99999999999;;;16.22;26.36
59654;BME280;66556;52.008;5.432;2023-04-04T00:12:44;103032.0;;;15.74;27.07
59654;BME280;66556;52.008;5.432;2023-04-04T00:15:57;103033.0;;;16.0;26.92
59654;BME280;66556;52.008;5.432;2023-04-04T00:19:09;103034.99999999999;;;15.81;27.3
59654;BME280;66556;52.008;5.432;2023-04-04T00:20:45;103031.0;;;16.15;26.77
59654;BME280;66556;52.008;5.432;2023-04-04T00:22:21;103028.0;;;16.12;26.61
59654;BME280;66556;52.008;5.432;2023-04-04T00:33:34;103023.0;;;16.31;26.25
59654;BME280;66556;52.008;5.432;2023-04-04T00:35:11;103017.0;;;16.07;26.44
59654;BME280;66556;52.008;5.432;2023-04-04T00:36:47;103017.0;;;15.72;27.08
59654;BME280;66556;52.008;5.432;2023-04-04T00:39:59;103011.99999999999;;;15.68;26.79
59654;BME280;66556;52.008;5.432;2023-04-04T00:41:35;103003.0;;;16.03;26.5
59654;BME280;66556;52.008;5.432;2023-04-04T00:43:12;103004.0;;;15.89;26.65
59654;BME280;66556;52.008;5.432;2023-04-04T00:44:50;102998.0;;;15.95;26.42
59654;BME280;66556;52.008;5.432;2023-04-04T00:48:03;102993.0;;;15.77;26.69
59654;BME280;66556;52.008;5.432;2023-04-04T00:49:39;102992.0;;;16.25;26.2
59654;BME280;66556;52.008;5.432;2023-04-04T00:51:15;102996.0;;;16.04;26.4
59654;BME280;66556;52.008;5.432;2023-04-04T00:54:28;102995.0;;;15.92;26.51
59654;BME280;66556;52.008;5.432;2023-04-04T00:56:07;103004.0;;;16.05;26.28
59654;BME280;66556;52.008;5.432;2023-04-04T00:57:44;103005.0;;;16.02;26.36
59654;BME280;66556;52.008;5.432;2023-04-04T01:00:58;103004.0;;;16.14;26.07
59654;BME280;66556;52.008;5.432;2023-04-04T01:02:35;103004.0;;;16.11;26.22
59654;BME280;66556;52.008;5.432;2023-04-04T01:04:11;103001.0;;;16.05;26.24
59654;BME280;66556;52.008;5.432;2023-04-04T01:05:47;102998.0;;;16.21;26.05
59654;BME280;66556;52.008;5.432;2023-04-04T01:09:01;102997.0;;;15.96;26.2
59654;BME280;66556;52.008;5.432;2023-04-04T01:10:38;103001.0;;;16.07;26.07
59654;BME280;66556;52.008;5.432;2023-04-04T01:12:15;103002.0;;;16.09;26.16
59654;BME280;66556;52.008;5.432;2023-04-04T01:15:27;102997.0;;;15.97;26.41
59654;BME280;66556;52.008;5.432;2023-04-04T01:17:04;102997.0;;;16.11;26.07
59654;BME280;66556;52.008;5.432;2023-04-04T01:18:41;102999.0;;;16.32;25.78
59654;BME280;66556;52.008;5.432;2023-04-04T01:22:01;102994.0;;;16.4;25.61
59654;BME280;66556;52.008;5.432;2023-04-04T01:23:46;102995.0;;;15.94;25.95
59654;BME280;66556;52.008;5.432;2023-04-04T01:25:34;103000.0;;;16.27;25.49
59654;BME280;66556;52.008;5.432;2023-04-04T01:27:10;102992.0;;;16.61;25.13
59654;BME280;66556;52.008;5.432;2023-04-04T01:28:47;102992.0;;;16.54;25.18
59654;BME280;66556;52.008;5.432;2023-04-04T01:32:07;102992.0;;;16.4;25.36
59654;BME280;66556;52.008;5.432;2023-04-04T01:33:53;102992.0;;;16.54;25.22
59654;BME280;66556;52.008;5.432;2023-04-04T01:35:41;102995.0;;;16.61;24.95
59654;BME280;66556;52.008;5.432;2023-04-04T01:37:26;102990.00000000001;;;16.43;25.24
59654;BME280;66556;52.008;5.432;2023-04-04T01:40:54;102991.00000000001;;;16.47;25.15
59654;BME280;66556;52.008;5.432;2023-04-04T01:42:36;102995.0;;;16.05;25.56
59654;BME280;66556;52.008;5.432;2023-04-04T01:44:15;102994.0;;;16.18;25.57
59654;BME280;66556;52.008;5.432;2023-04-04T01:45:52;102991.00000000001;;;16.38;25.48
59654;BME280;66556;52.008;5.432;2023-04-04T01:49:03;102997.0;;;15.98;26.09
59654;BME280;66556;52.008;5.432;2023-04-04T01:50:39;103001.0;;;15.99;26.07
59654;BME280;66556;52.008;5.432;2023-04-04T01:52:15;103000.0;;;15.5;26.94
59654;BME280;66556;52.008;5.432;2023-04-04T01:53:52;103000.0;;;15.67;27.01
59654;BME280;66556;52.008;5.432;2023-04-04T01:57:04;102994.0;;;15.63;26.79
59654;BME280;66556;52.008;5.432;2023-04-04T01:58:40;102994.0;;;15.26;27.31
59654;BME280;66556;52.008;5.432;2023-04-04T02:00:16;102995.0;;;15.1;27.79
59654;BME280;66556;52.008;5.432;2023-04-04T02:03:29;103002.0;;;14.77;28.14
59654;BME280;66556;52.008;5.432;2023-04-04T02:05:05;103001.0;;;14.4;28.88
59654;BME280;66556;52.008;5.432;2023-04-04T02:06:42;102999.0;;;14.38;28.94
59654;BME280;66556;52.008;5.432;2023-04-04T02:09:54;103005.0;;;14.36;29.09
59654;BME280;66556;52.008;5.432;2023-04-04T02:11:30;103004.0;;;14.07;29.42
59654;BME280;66556;52.008;5.432;2023-04-04T02:13:06;103005.0;;;13.96;29.66
59654;BME280;66556;52.008;5.432;2023-04-04T02:16:19;103004.0;;;13.98;29.57
59654;BME280;66556;52.008;5.432;2023-04-04T02:17:55;103005.0;;;14.36;29.07
59654;BME280;66556;52.008;5.432;2023-04-04T02:19:31;103006.0;;;14.33;29.05
59654;BME280;66556;52.008;5.432;2023-04-04T02:21:07;103007.0;;;14.3;29.0
59654;BME280;66556;52.008;5.432;2023-04-04T02:24:25;103007.0;;;14.14;29.36
59654;BME280;66556;52.008;5.432;2023-04-04T02:26:01;103007.0;;;14.16;29.66
59654;BME280;66556;52.008;5.432;2023-04-04T02:27:37;103008.0;;;14.1;29.39
59654;BME280;66556;52.008;5.432;2023-04-04T02:30:50;103008.99999999999;;;14.17;29.46
59654;BME280;66556;52.008;5.432;2023-04-04T02:32:26;103006.0;;;13.97;29.69
59654;BME280;66556;52.008;5.432;2023-04-04T02:34:02;103003.0;;;14.18;29.4
59654;BME280;66556;52.008;5.432;2023-04-04T02:37:15;103004.0;;;14.16;29.34
59654;BME280;66556;52.008;5.432;2023-04-04T02:38:51;103004.0;;;14.15;29.46
59654;BME280;66556;52.008;5.432;2023-04-04T02:40:27;103000.0;;;14.12;29.68
59654;BME280;66556;52.008;5.432;2023-04-04T02:42:03;102998.0;;;14.35;28.89
59654;BME280;66556;52.008;5.432;2023-04-04T02:45:15;103000.0;;;14.04;29.47
59654;BME280;66556;52.008;5.432;2023-04-04T02:46:52;103004.0;;;13.89;29.75
59654;BME280;66556;52.008;5.432;2023-04-04T02:48:28;103004.0;;;13.85;29.82
59654;BME280;66556;52.008;5.432;2023-04-04T02:51:41;102999.0;;;14.2;29.2
59654;BME280;66556;52.008;5.432;2023-04-04T02:53:17;102994.0;;;14.1;29.55
59654;BME280;66556;52.008;5.432;2023-04-04T02:54:53;102992.0;;;14.05;29.58
59654;BME280;66556;52.008;5.432;2023-04-04T02:58:05;102991.00000000001;;;13.9;29.84
59654;BME280;66556;52.008;5.432;2023-04-04T02:59:42;102990.00000000001;;;13.87;29.92
59654;BME280;66556;52.008;5.432;2023-04-04T03:01:18;102982.0;;;13.92;29.78
59654;BME280;66556;52.008;5.432;2023-04-04T03:02:54;102983.0;;;13.83;29.86
59654;BME280;66556;52.008;5.432;2023-04-04T03:06:07;102981.0;;;13.84;29.98
59654;BME280;66556;52.008;5.432;2023-04-04T03:07:43;102983.0;;;13.74;30.17
59654;BME280;66556;52.008;5.432;2023-04-04T03:09:20;102979.0;;;13.86;29.95
59654;BME280;66556;52.008;5.432;2023-04-04T03:12:32;102976.0;;;13.97;29.55
59654;BME280;66556;52.008;5.432;2023-04-04T03:14:08;102971.0;;;13.91;29.82
59654;BME280;66556;52.008;5.432;2023-04-04T03:15:44;102968.0;;;13.9;29.39
59654;BME280;66556;52.008;5.432;2023-04-04T03:18:56;102975.0;;;13.63;30.21
59654;BME280;66556;52.008;5.432;2023-04-04T03:20:33;102978.0;;;13.5;30.64
59654;BME280;66556;52.008;5.432;2023-04-04T03:22:09;102983.0;;;13.57;30.44
59654;BME280;66556;52.008;5.432;2023-04-04T03:25:21;102981.0;;;13.7;30.08
59654;BME280;66556;52.008;5.432;2023-04-04T03:26:58;102982.0;;;13.49;30.57
59654;BME280;66556;52.008;5.432;2023-04-04T03:28:34;102988.00000000001;;;13.55;30.38
59654;BME280;66556;52.008;5.432;2023-04-04T03:30:11;102983.99999999999;;;13.53;30.52
59654;BME280;66556;52.008;5.432;2023-04-04T03:33:24;102990.00000000001;;;13.76;30.01
59654;BME280;66556;52.008;5.432;2023-04-04T03:35:00;102979.0;;;13.48;30.48
59654;BME280;66556;52.008;5.432;2023-04-04T03:36:36;102983.99999999999;;;13.49;30.4
59654;BME280;66556;52.008;5.432;2023-04-04T03:39:48;102982.0;;;13.39;30.62
59654;BME280;66556;52.008;5.432;2023-04-04T03:41:25;102979.0;;;13.27;30.9
59654;BME280;66556;52.008;5.432;2023-04-04T03:43:01;102971.0;;;13.48;30.4
59654;BME280;66556;52.008;5.432;2023-04-04T03:46:15;102974.0;;;13.46;30.36
59654;BME280;66556;52.008;5.432;2023-04-04T03:47:51;102973.0;;;13.38;30.55
59654;BME280;66556;52.008;5.432;2023-04-04T03:49:27;102966.00000000001;;;13.15;30.98
59654;BME280;66556;52.008;5.432;2023-04-04T03:51:03;102957.0;;;13.08;30.96
59654;BME280;66556;52.008;5.432;2023-04-04T03:54:16;102958.99999999999;;;13.1;31.11
59654;BME280;66556;52.008;5.432;2023-04-04T03:55:54;102963.00000000001;;;13.16;30.46
59654;BME280;66556;52.008;5.432;2023-04-04T03:57:31;102959.99999999999;;;13.34;30.43
59654;BME280;66556;52.008;5.432;2023-04-04T04:00:43;102963.00000000001;;;13.44;30.14
59654;BME280;66556;52.008;5.432;2023-04-04T04:02:19;102967.0;;;13.22;30.7
59654;BME280;66556;52.008;5.432;2023-04-04T04:03:55;102965.00000000001;;;13.02;31.39
59654;BME280;66556;52.008;5.432;2023-04-04T04:07:07;102969.0;;;12.85;31.67
59654;BME280;66556;52.008;5.432;2023-04-04T04:08:44;102969.0;;;12.95;31.57
59654;BME280;66556;52.008;5.432;2023-04-04T04:10:21;102971.0;;;13.16;31.15
59654;BME280;66556;52.008;5.432;2023-04-04T04:11:57;102971.0;;;12.87;31.71
59654;BME280;66556;52.008;5.432;2023-04-04T04:15:10;102971.0;;;12.65;31.95
59654;BME280;66556;52.008;5.432;2023-04-04T04:16:46;102975.0;;;12.92;31.54
59654;BME280;66556;52.008;5.432;2023-04-04T04:18:22;102977.0;;;12.74;31.75
59654;BME280;66556;52.008;5.432;2023-04-04T04:21:35;102976.0;;;12.58;32.12
59654;BME280;66556;52.008;5.432;2023-04-04T04:23:11;102976.0;;;12.57;32.08
59654;BME280;66556;52.008;5.432;2023-04-04T04:24:47;102979.0;;;12.54;32.22
59654;BME280;66556;52.008;5.432;2023-04-04T04:27:59;102984.99999999999;;;12.8;31.62
59654;BME280;66556;52.008;5.432;2023-04-04T04:29:37;102982.0;;;12.9;31.73
59654;BME280;66556;52.008;5.432;2023-04-04T04:31:13;102986.99999999999;;;12.8;31.77
59654;BME280;66556;52.008;5.432;2023-04-04T04:34:25;102988.00000000001;;;12.95;31.34
59654;BME280;66556;52.008;5.432;2023-04-04T04:36:02;102982.0;;;12.96;31.73
59654;BME280;66556;52.008;5.432;2023-04-04T04:37:39;102982.0;;;13.19;31.17
59654;BME280;66556;52.008;5.432;2023-04-04T04:39:15;102981.0;;;12.99;31.51
59654;BME280;66556;52.008;5.432;2023-04-04T04:42:28;102982.0;;;12.91;31.77
59654;BME280;66556;52.008;5.432;2023-04-04T04:44:04;102978.0;;;13.07;31.52
59654;BME280;66556;52.008;5.432;2023-04-04T04:45:40;102972.0;;;12.8;32.01
59654;BME280;66556;52.008;5.432;2023-04-04T04:48:52;102977.0;;;12.95;31.96
59654;BME280;66556;52.008;5.432;2023-04-04T04:50:28;102979.0;;;12.94;31.91
59654;BME280;66556;52.008;5.432;2023-04-04T04:52:04;102977.0;;;12.6;32.42
59654;BME280;66556;52.008;5.432;2023-04-04T04:55:17;102978.0;;;12.54;32.61
59654;BME280;66556;52.008;5.432;2023-04-04T04:56:53;102980.0;;;12.56;32.78
59654;BME280;66556;52.008;5.432;2023-04-04T04:58:29;102983.0;;;12.56;32.53
59654;BME280;66556;52.008;5.432;2023-04-04T05:00:06;102984.99999999999;;;12.63;32.37
59654;BME280;66556;52.008;5.432;2023-04-04T05:03:18;102984.99999999999;;;12.61;32.37
59654;BME280;66556;52.008;5.432;2023-04-04T05:04:55;102991.00000000001;;;12.73;32.21
59654;BME280;66556;52.008;5.432;2023-04-04T05:06:31;102992.0;;;12.46;32.74
59654;BME280;66556;52.008;5.432;2023-04-04T05:09:43;102994.0;;;12.53;32.61
59654;BME280;66556;52.008;5.432;2023-04-04T05:11:19;102992.0;;;12.32;33.15
59654;BME280;66556;52.008;5.432;2023-04-04T05:12:56;102998.0;;;12.42;32.89
59654;BME280;66556;52.008;5.432;2023-04-04T05:16:08;103002.0;;;12.85;32.21
59654;BME280;66556;52.008;5.432;2023-04-04T05:17:45;103001.0;;;12.85;32.47
59654;BME280;66556;52.008;5.432;2023-04-04T05:19:21;103000.0;;;13.13;31.69
59654;BME280;66556;52.008;5.432;2023-04-04T05:20:57;102996.0;;;12.69;32.6
59654;BME280;66556;52.008;5.432;2023-04-04T05:24:09;102995.0;;;12.97;32.24
59654;BME280;66556;52.008;5.432;2023-04-04T05:25:47;103002.0;;;12.92;32.24
59654;BME280;66556;52.008;5.432;2023-04-04T05:27:23;103004.0;;;12.86;32.33
59654;BME280;66556;52.008;5.432;2023-04-04T05:30:36;102998.0;;;12.59;33.25
59654;BME280;66556;52.008;5.432;2023-04-04T05:32:12;103003.0;;;12.82;32.8
59654;BME280;66556;52.008;5.432;2023-04-04T05:33:48;103001.0;;;12.78;32.75
59654;BME280;66556;52.008;5.432;2023-04-04T05:37:00;102997.0;;;12.89;32.74
59654;BME280;66556;52.008;5.432;2023-04-04T05:38:37;102995.0;;;13.1;32.22
59654;BME280;66556;52.008;5.432;2023-04-04T05:40:13;102991.00000000001;;;13.14;32.28
59654;BME280;66556;52.008;5.432;2023-04-04T05:43:25;102986.99999999999;;;12.84;32.78
59654;BME280;66556;52.008;5.432;2023-04-04T05:45:01;102986.99999999999;;;12.85;32.74
59654;BME280;66556;52.008;5.432;2023-04-04T05:46:37;102992.0;;;13.04;32.55
59654;BME280;66556;52.008;5.432;2023-04-04T05:48:13;102992.0;;;12.84;32.83
59654;BME280;66556;52.008;5.432;2023-04-04T05:51:26;102993.0;;;12.72;33.19
59654;BME280;66556;52.008;5.432;2023-04-04T05:53:02;102997.0;;;12.88;33.07
59654;BME280;66556;52.008;5.432;2023-04-04T05:54:38;102999.0;;;13.04;32.72
59654;BME280;66556;52.008;5.432;2023-04-04T05:57:50;102997.0;;;13.14;32.6
59654;BME280;66556;52.008;5.432;2023-04-04T05:59:26;103003.0;;;13.12;32.67
59654;BME280;66556;52.008;5.432;2023-04-04T06:01:05;103009.99999999999;;;13.15;32.51
59654;BME280;66556;52.008;5.432;2023-04-04T06:04:18;103008.0;;;13.75;31.96
59654;BME280;66556;52.008;5.432;2023-04-04T06:05:54;103015.00000000001;;;14.01;31.29
59654;BME280;66556;52.008;5.432;2023-04-04T06:07:30;103011.99999999999;;;13.92;31.56
59654;BME280;66556;52.008;5.432;2023-04-04T06:09:06;103014.00000000001;;;14.01;31.4
59654;BME280;66556;52.008;5.432;2023-04-04T06:12:19;103009.99999999999;;;14.17;31.42
59654;BME280;66556;52.008;5.432;2023-04-04T06:13:55;103005.0;;;14.63;30.51
59654;BME280;66556;52.008;5.432;2023-04-04T06:15:31;102999.0;;;14.85;30.46
59654;BME280;66556;52.008;5.432;2023-04-04T06:18:43;103001.0;;;14.86;30.76
59654;BME280;66556;52.008;5.432;2023-04-04T06:20:20;103000.0;;;15.35;30.17
59654;BME280;66556;52.008;5.432;2023-04-04T06:21:57;102999.0;;;15.3;29.97
59654;BME280;66556;52.008;5.432;2023-04-04T06:25:09;102995.0;;;15.98;29.65
59654;BME280;66556;52.008;5.432;2023-04-04T06:26:45;102998.0;;;16.0;30.15
59654;BME280;66556;52.008;5.432;2023-04-04T06:28:21;102995.0;;;16.11;29.78
59654;BME280;66556;52.008;5.432;2023-04-04T06:31:33;102993.0;;;16.56;29.24
59654;BME280;66556;52.008;5.432;2023-04-04T06:33:10;102994.0;;;16.75;28.37
59654;BME280;66556;52.008;5.432;2023-04-04T06:34:46;102997.0;;;16.75;27.58
59654;BME280;66556;52.008;5.432;2023-04-04T06:36:22;102992.0;;;16.64;28.18
59654;BME280;66556;52.008;5.432;2023-04-04T06:39:34;102991.00000000001;;;16.75;27.83
59654;BME280;66556;52.008;5.432;2023-04-04T06:41:10;102993.0;;;17.05;27.73
59654;BME280;66556;52.008;5.432;2023-04-04T06:42:47;102993.0;;;16.5;28.32
59654;BME280;66556;52.008;5.432;2023-04-04T06:46:00;102996.0;;;16.5;29.25
59654;BME280;66556;52.008;5.432;2023-04-04T06:47:36;102997.0;;;16.86;28.99
59654;BME280;66556;52.008;5.432;2023-04-04T06:49:12;103003.0;;;17.53;28.34
59654;BME280;66556;52.008;5.432;2023-04-04T06:52:25;103003.0;;;17.89;28.07
59654;BME280;66556;52.008;5.432;2023-04-04T06:54:00;103009.99999999999;;;17.62;27.0
59654;BME280;66556;52.008;5.432;2023-04-04T06:55:37;103011.99999999999;;;17.61;28.11
59654;BME280;66556;52.008;5.432;2023-04-04T06:57:13;103016.00000000001;;;17.73;28.47
59654;BME280;66556;52.008;5.432;2023-04-04T07:00:25;103014.00000000001;;;18.21;28.16
59654;BME280;66556;52.008;5.432;2023-04-04T07:02:01;103013.00000000001;;;18.32;27.85
59654;BME280;66556;52.008;5.432;2023-04-04T07:03:37;103017.0;;;18.45;28.43
59654;BME280;66556;52.008;5.432;2023-04-04T07:06:50;103018.0;;;18.84;27.33
59654;BME280;66556;52.008;5.432;2023-04-04T07:08:27;103019.0;;;18.97;26.32
59654;BME280;66556;52.008;5.432;2023-04-04T07:10:05;103022.0;;;19.43;26.42
59654;BME280;66556;52.008;5.432;2023-04-04T07:13:17;103020.0;;;19.28;26.86
59654;BME280;66556;52.008;5.432;2023-04-04T07:14:53;103022.0;;;19.64;27.0
59654;BME280;66556;52.008;5.432;2023-04-04T07:16:30;103022.0;;;20.02;23.9
59654;BME280;66556;52.008;5.432;2023-04-04T07:18:06;103022.0;;;20.03;25.62
59654;BME280;66556;52.008;5.432;2023-04-04T07:21:18;103021.0;;;20.18;25.03
59654;BME280;66556;52.008;5.432;2023-04-04T07:22:54;103022.0;;;19.78;25.44
59654;BME280;66556;52.008;5.432;2023-04-04T07:24:30;103022.0;;;19.81;24.71
59654;BME280;66556;52.008;5.432;2023-04-04T07:27:43;103017.0;;;20.41;26.0
59654;BME280;66556;52.008;5.432;2023-04-04T07:29:19;103018.0;;;19.93;26.21
59654;BME280;66556;52.008;5.432;2023-04-04T07:30:58;103015.00000000001;;;19.91;26.22
59654;BME280;66556;52.008;5.432;2023-04-04T07:34:10;103016.00000000001;;;20.25;25.93
59654;BME280;66556;52.008;5.432;2023-04-04T07:35:46;103013.00000000001;;;20.72;25.11
59654;BME280;66556;52.008;5.432;2023-04-04T07:37:22;103015.00000000001;;;20.63;24.8
59654;BME280;66556;52.008;5.432;2023-04-04T07:40:35;103017.0;;;21.02;24.87
59654;BME280;66556;52.008;5.432;2023-04-04T07:42:11;103016.00000000001;;;20.89;23.67
59654;BME280;66556;52.008;5.432;2023-04-04T07:43:47;103016.00000000001;;;20.96;24.98
59654;BME280;66556;52.008;5.432;2023-04-04T07:45:22;103017.0;;;21.78;22.6
59654;BME280;66556;52.008;5.432;2023-04-04T07:48:34;103017.0;;;21.52;22.9
59654;BME280;66556;52.008;5.432;2023-04-04T07:50:11;103014.00000000001;;;21.77;23.32
59654;BME280;66556;52.008;5.432;2023-04-04T07:51:47;103015.00000000001;;;21.7;23.15
59654;BME280;66556;52.008;5.432;2023-04-04T07:54:58;103014.00000000001;;;21.91;23.46
59654;BME280;66556;52.008;5.432;2023-04-04T07:56:35;103016.00000000001;;;21.78;22.94
59654;BME280;66556;52.008;5.432;2023-04-04T07:58:10;103011.99999999999;;;21.63;23.11
59654;BME280;66556;52.008;5.432;2023-04-04T08:01:22;103002.0;;;21.66;20.57
59654;BME280;66556;52.008;5.432;2023-04-04T08:02:58;103003.0;;;21.86;21.3
59654;BME280;66556;52.008;5.432;2023-04-04T08:04:34;103013.00000000001;;;21.83;22.3
59654;BME280;66556;52.008;5.432;2023-04-04T08:07:48;103006.0;;;21.6;21.62
59654;BME280;66556;52.008;5.432;2023-04-04T08:09:24;103003.0;;;21.35;20.32
59654;BME280;66556;52.008;5.432;2023-04-04T08:11:00;103002.0;;;21.25;21.37
59654;BME280;66556;52.008;5.432;2023-04-04T08:12:37;103004.0;;;21.68;21.45
59654;BME280;66556;52.008;5.432;2023-04-04T08:15:50;103008.0;;;21.34;22.82
59654;BME280;66556;52.008;5.432;2023-04-04T08:17:26;103007.0;;;21.44;22.13
59654;BME280;66556;52.008;5.432;2023-04-04T08:19:02;103000.0;;;21.65;20.82
59654;BME280;66556;52.008;5.432;2023-04-04T08:22:14;102999.0;;;21.94;21.3
59654;BME280;66556;52.008;5.432;2023-04-04T08:23:50;103003.0;;;22.72;20.14
59654;BME280;66556;52.008;5.432;2023-04-04T08:25:26;103001.0;;;22.51;19.75
59654;BME280;66556;52.008;5.432;2023-04-04T08:28:37;102997.0;;;22.28;19.61
59654;BME280;66556;52.008;5.432;2023-04-04T08:30:13;102993.0;;;21.99;18.52
59654;BME280;66556;52.008;5.432;2023-04-04T08:31:50;102992.0;;;22.26;18.96
59654;BME280;66556;52.008;5.432;2023-04-04T08:33:26;102994.0;;;22.4;19.36
59654;BME280;66556;52.008;5.432;2023-04-04T08:36:38;102998.0;;;22.26;18.2
59654;BME280;66556;52.008;5.432;2023-04-04T08:38:14;102999.0;;;22.38;18.57
59654;BME280;66556;52.008;5.432;2023-04-04T08:39:50;102996.0;;;22.45;19.81
59654;BME280;66556;52.008;5.432;2023-04-04T08:43:03;102992.0;;;23.09;17.79
59654;BME280;66556;52.008;5.432;2023-04-04T08:44:40;102981.0;;;23.11;18.96
59654;BME280;66556;52.008;5.432;2023-04-04T08:46:20;102981.0;;;22.95;17.43
59654;BME280;66556;52.008;5.432;2023-04-04T08:49:36;102984.99999999999;;;23.61;16.98
59654;BME280;66556;52.008;5.432;2023-04-04T08:51:14;102988.00000000001;;;23.59;17.46
59654;BME280;66556;52.008;5.432;2023-04-04T08:52:52;102982.0;;;23.9;18.56
59654;BME280;66556;52.008;5.432;2023-04-04T08:54:29;102983.99999999999;;;24.18;17.79
59654;BME280;66556;52.008;5.432;2023-04-04T08:57:42;102988.00000000001;;;24.34;16.53
59654;BME280;66556;52.008;5.432;2023-04-04T08:59:19;102983.99999999999;;;24.38;16.7
59654;BME280;66556;52.008;5.432;2023-04-04T09:00:55;102984.99999999999;;;23.58;16.91
59654;BME280;66556;52.008;5.432;2023-04-04T09:04:15;102983.99999999999;;;24.13;16.97
59654;BME280;66556;52.008;5.432;2023-04-04T09:05:52;102989.00000000001;;;24.49;15.54
59654;BME280;66556;52.008;5.432;2023-04-04T09:07:30;102990.00000000001;;;24.8;15.69
59654;BME280;66556;52.008;5.432;2023-04-04T09:09:06;102992.0;;;24.83;16.25
59654;BME280;66556;52.008;5.432;2023-04-04T09:12:21;102994.0;;;25.1;16.77
59654;BME280;66556;52.008;5.432;2023-04-04T09:13:57;102992.0;;;24.57;16.45
59654;BME280;66556;52.008;5.432;2023-04-04T09:15:36;102998.0;;;23.58;17.02
59654;BME280;66556;52.008;5.432;2023-04-04T09:18:48;102991.00000000001;;;24.47;17.55
59654;BME280;66556;52.008;5.432;2023-04-04T09:20:36;102992.0;;;25.14;16.79
59654;BME280;66556;52.008;5.432;2023-04-04T09:22:15;102992.0;;;25.13;16.81
59654;BME280;66556;52.008;5.432;2023-04-04T09:23:57;102989.00000000001;;;25.7;16.16
59654;BME280;66556;52.008;5.432;2023-04-04T09:27:11;102986.99999999999;;;25.44;16.55
59654;BME280;66556;52.008;5.432;2023-04-04T09:28:51;102982.0;;;25.52;16.06
59654;BME280;66556;52.008;5.432;2023-04-04T09:30:28;102979.0;;;25.83;17.27
59654;BME280;66556;52.008;5.432;2023-04-04T09:32:06;102980.0;;;25.85;16.04
59654;BME280;66556;52.008;5.432;2023-04-04T09:35:18;102984.99999999999;;;25.35;17.95
59654;BME280;66556;52.008;5.432;2023-04-04T09:36:56;102979.0;;;25.41;16.02
59654;BME280;66556;52.008;5.432;2023-04-04T09:38:35;102977.0;;;25.78;16.7
59654;BME280;66556;52.008;5.432;2023-04-04T09:41:50;102976.0;;;25.59;14.98
59654;BME280;66556;52.008;5.432;2023-04-04T09:43:29;102980.0;;;25.87;15.45
59654;BME280;66556;52.008;5.432;2023-04-04T09:45:06;102978.0;;;25.11;16.11
59654;BME280;66556;52.008;5.432;2023-04-04T09:46:43;102974.0;;;25.22;16.62
59654;BME280;66556;52.008;5.432;2023-04-04T09:50:06;102975.0;;;25.72;16.37
59654;BME280;66556;52.008;5.432;2023-04-04T09:51:47;102970.0;;;25.75;15.69
59654;BME280;66556;52.008;5.432;2023-04-04T09:53:24;102969.0;;;25.45;15.94
59654;BME280;66556;52.008;5.432;2023-04-04T09:55:01;102970.0;;;25.76;15.8
59654;BME280;66556;52.008;5.432;2023-04-04T09:58:18;102969.0;;;25.83;17.27
59654;BME280;66556;52.008;5.432;2023-04-04T09:59:56;102967.0;;;26.38;15.52
59654;BME280;66556;52.008;5.432;2023-04-04T10:01:33;102961.99999999999;;;26.13;15.92
59654;BME280;66556;52.008;5.432;2023-04-04T10:04:48;102966.00000000001;;;25.78;17.06
59654;BME280;66556;52.008;5.432;2023-04-04T10:06:24;102958.0;;;25.92;16.95
59654;BME280;66556;52.008;5.432;2023-04-04T10:08:13;102959.99999999999;;;26.41;16.98
59654;BME280;66556;52.008;5.432;2023-04-04T10:09:50;102958.99999999999;;;26.6;16.02
59654;BME280;66556;52.008;5.432;2023-04-04T10:13:05;102963.00000000001;;;26.41;16.38
59654;BME280;66556;52.008;5.432;2023-04-04T10:14:41;102959.99999999999;;;26.61;16.8
59654;BME280;66556;52.008;5.432;2023-04-04T10:16:17;102953.0;;;26.56;15.25
59654;BME280;66556;52.008;5.432;2023-04-04T10:19:32;102956.0;;;25.83;14.96
59654;BME280;66556;52.008;5.432;2023-04-04T10:21:09;102951.0;;;26.32;15.4
59654;BME280;66556;52.008;5.432;2023-04-04T10:22:45;102944.0;;;26.5;15.68
59654;BME280;66556;52.008;5.432;2023-04-04T10:24:21;102941.00000000001;;;27.05;15.58
59654;BME280;66556;52.008;5.432;2023-04-04T10:27:34;102938.00000000001;;;27.17;15.93
59654;BME280;66556;52.008;5.432;2023-04-04T10:29:09;102933.99999999999;;;26.53;16.45
59654;BME280;66556;52.008;5.432;2023-04-04T10:30:48;102929.0;;;26.4;16.06
59654;BME280;66556;52.008;5.432;2023-04-04T10:34:27;102931.0;;;26.17;17.3
59654;BME280;66556;52.008;5.432;2023-04-04T10:36:08;102924.0;;;27.1;16.89
59654;BME280;66556;52.008;5.432;2023-04-04T10:37:51;102924.0;;;27.17;17.04
59654;BME280;66556;52.008;5.432;2023-04-04T10:39:32;102928.0;;;26.56;15.24
59654;BME280;66556;52.008;5.432;2023-04-04T10:41:13;102922.0;;;26.54;14.97
59654;BME280;66556;52.008;5.432;2023-04-04T10:44:28;102923.0;;;27.06;16.39
59654;BME280;66556;52.008;5.432;2023-04-04T10:46:08;102917.0;;;26.95;14.73
59654;BME280;66556;52.008;5.432;2023-04-04T10:47:49;102921.0;;;26.91;15.16
59654;BME280;66556;52.008;5.432;2023-04-04T10:49:26;102920.0;;;26.31;13.78
59654;BME280;66556;52.008;5.432;2023-04-04T10:52:43;102918.0;;;26.46;13.73
59654;BME280;66556;52.008;5.432;2023-04-04T10:54:20;102917.0;;;26.61;14.52
59654;BME280;66556;52.008;5.432;2023-04-04T10:55:55;102916.00000000001;;;26.74;15.14